sensor_id;sensor_type;location;lat;lon;timestamp;pressure;altitude;pressure_sealevel;temperature;humidity
46127;BME280;31859;55.030;-1.550;2022-07-04T00:01:24;100727.44;;;10.90;100.00
46127;BME280;31859;55.030;-1.550;2022-07-04T00:03:51;100729.04;;;10.35;100.00
46127;BME280;31859;55.030;-1.550;2022-07-04T00:06:18;100727.54;;;10.63;100.00
46127;BME280;31859;55.030;-1.550;2022-07-04T00:08:45;100723.71;;;11.15;100.00
46127;BME280;31859;55.030;-1.550;2022-07-04T00:11:12;100725.96;;;11.35;100.00
46127;BME280;31859;55.030;-1.550;2022-07-04T00:13:39;100724.96;;;11.01;100.00
46127;BME280;31859;55.030;-1.550;2022-07-04T00:16:07;100722.65;;;11.05;100.00
46127;BME280;31859;55.030;-1.550;2022-07-04T00:18:33;100723.96;;;11.09;100.00
46127;BME280;31859;55.030;-1.550;2022-07-04T00:21:00;100724.35;;;10.98;100.00
46127;BME280;31859;55.030;-1.550;2022-07-04T00:23:27;100724.01;;;11.29;100.00
46127;BME280;31859;55.030;-1.550;2022-07-04T00:25:54;100721.53;;;10.82;100.00
46127;BME280;31859;55.030;-1.550;2022-07-04T00:28:22;100721.80;;;10.86;100.00
46127;BME280;31859;55.030;-1.550;2022-07-04T00:30:49;100724.08;;;10.91;100.00
46127;BME280;31859;55.030;-1.550;2022-07-04T00:33:16;100728.90;;;10.92;100.00
46127;BME280;31859;55.030;-1.550;2022-07-04T00:35:42;100733.67;;;10.33;100.00
46127;BME280;31859;55.030;-1.550;2022-07-04T00:38:10;100733.77;;;10.68;100.00
46127;BME280;31859;55.030;-1.550;2022-07-04T00:40:38;100743.97;;;10.63;100.00
46127;BME280;31859;55.030;-1.550;2022-07-04T00:43:06;100747.05;;;10.55;100.00
46127;BME280;31859;55.030;-1.550;2022-07-04T00:45:33;100743.33;;;10.05;100.00
46127;BME280;31859;55.030;-1.550;2022-07-04T00:48:00;100742.98;;;9.95;100.00
46127;BME280;31859;55.030;-1.550;2022-07-04T00:50:27;100733.12;;;9.44;100.00
46127;BME280;31859;55.030;-1.550;2022-07-04T00:52:54;100739.23;;;9.65;100.00
46127;BME280;31859;55.030;-1.550;2022-07-04T00:55:22;100729.48;;;9.27;100.00
46127;BME280;31859;55.030;-1.550;2022-07-04T00:57:50;100727.58;;;8.78;100.00
46127;BME280;31859;55.030;-1.550;2022-07-04T01:00:18;100725.63;;;9.13;100.00
46127;BME280;31859;55.030;-1.550;2022-07-04T01:02:46;100718.04;;;9.06;100.00
46127;BME280;31859;55.030;-1.550;2022-07-04T01:05:14;100720.56;;;9.19;100.00
46127;BME280;31859;55.030;-1.550;2022-07-04T01:07:42;100715.22;;;9.03;100.00
46127;BME280;31859;55.030;-1.550;2022-07-04T01:10:10;100709.12;;;8.77;100.00
46127;BME280;31859;55.030;-1.550;2022-07-04T01:12:37;100702.01;;;8.62;100.00
46127;BME280;31859;55.030;-1.550;2022-07-04T01:15:07;100702.71;;;8.61;100.00
46127;BME280;31859;55.030;-1.550;2022-07-04T01:17:34;100706.45;;;8.51;100.00
46127;BME280;31859;55.030;-1.550;2022-07-04T01:20:03;100705.17;;;8.89;100.00
46127;BME280;31859;55.030;-1.550;2022-07-04T01:22:30;100703.70;;;8.62;100.00
46127;BME280;31859;55.030;-1.550;2022-07-04T01:24:57;100703.22;;;8.62;100.00
46127;BME280;31859;55.030;-1.550;2022-07-04T01:27:24;100703.09;;;8.64;100.00
46127;BME280;31859;55.030;-1.550;2022-07-04T01:29:51;100695.57;;;8.98;100.00
46127;BME280;31859;55.030;-1.550;2022-07-04T01:32:18;100701.21;;;9.09;100.00
46127;BME280;31859;55.030;-1.550;2022-07-04T01:34:46;100701.93;;;9.26;100.00
46127;BME280;31859;55.030;-1.550;2022-07-04T01:37:13;100705.80;;;9.00;100.00
46127;BME280;31859;55.030;-1.550;2022-07-04T01:39:40;100703.48;;;8.94;100.00
46127;BME280;31859;55.030;-1.550;2022-07-04T01:42:08;100698.16;;;8.80;100.00
46127;BME280;31859;55.030;-1.550;2022-07-04T01:44:35;100698.23;;;8.57;100.00
46127;BME280;31859;55.030;-1.550;2022-07-04T01:47:03;100692.96;;;9.39;100.00
46127;BME280;31859;55.030;-1.550;2022-07-04T01:49:30;100689.73;;;9.02;100.00
46127;BME280;31859;55.030;-1.550;2022-07-04T01:51:57;100689.07;;;8.73;100.00
46127;BME280;31859;55.030;-1.550;2022-07-04T01:54:24;100692.10;;;9.23;100.00
46127;BME280;31859;55.030;-1.550;2022-07-04T01:56:51;100697.31;;;8.96;100.00
46127;BME280;31859;55.030;-1.550;2022-07-04T01:59:18;100685.78;;;8.78;100.00
46127;BME280;31859;55.030;-1.550;2022-07-04T02:01:45;100676.22;;;8.94;100.00
46127;BME280;31859;55.030;-1.550;2022-07-04T02:04:12;100672.19;;;8.74;100.00
46127;BME280;31859;55.030;-1.550;2022-07-04T02:06:38;100671.88;;;8.68;100.00
46127;BME280;31859;55.030;-1.550;2022-07-04T02:09:05;100668.88;;;9.02;100.00
46127;BME280;31859;55.030;-1.550;2022-07-04T02:11:32;100671.88;;;8.86;100.00
46127;BME280;31859;55.030;-1.550;2022-07-04T02:13:59;100671.37;;;9.26;100.00
46127;BME280;31859;55.030;-1.550;2022-07-04T02:16:26;100672.73;;;9.27;100.00
46127;BME280;31859;55.030;-1.550;2022-07-04T02:18:54;100676.34;;;8.90;100.00
46127;BME280;31859;55.030;-1.550;2022-07-04T02:21:21;100671.83;;;9.38;100.00
46127;BME280;31859;55.030;-1.550;2022-07-04T02:23:48;100665.41;;;9.75;100.00
46127;BME280;31859;55.030;-1.550;2022-07-04T02:26:15;100665.63;;;9.53;100.00
46127;BME280;31859;55.030;-1.550;2022-07-04T02:28:42;100664.30;;;9.56;100.00
46127;BME280;31859;55.030;-1.550;2022-07-04T02:31:09;100667.34;;;9.36;100.00
46127;BME280;31859;55.030;-1.550;2022-07-04T02:33:36;100667.35;;;9.15;100.00
46127;BME280;31859;55.030;-1.550;2022-07-04T02:36:03;100667.97;;;9.05;100.00
46127;BME280;31859;55.030;-1.550;2022-07-04T02:38:31;100664.41;;;9.61;100.00
46127;BME280;31859;55.030;-1.550;2022-07-04T02:40:57;100664.20;;;9.34;100.00
46127;BME280;31859;55.030;-1.550;2022-07-04T02:43:25;100660.12;;;9.32;100.00
46127;BME280;31859;55.030;-1.550;2022-07-04T02:45:52;100654.25;;;9.48;100.00
46127;BME280;31859;55.030;-1.550;2022-07-04T02:48:19;100646.85;;;9.06;100.00
46127;BME280;31859;55.030;-1.550;2022-07-04T02:50:47;100644.16;;;9.38;100.00
46127;BME280;31859;55.030;-1.550;2022-07-04T02:53:14;100635.12;;;8.90;100.00
46127;BME280;31859;55.030;-1.550;2022-07-04T02:55:41;100635.12;;;9.15;100.00
46127;BME280;31859;55.030;-1.550;2022-07-04T02:58:08;100638.86;;;9.23;100.00
46127;BME280;31859;55.030;-1.550;2022-07-04T03:00:35;100629.09;;;8.72;100.00
46127;BME280;31859;55.030;-1.550;2022-07-04T03:03:02;100625.05;;;8.91;100.00
46127;BME280;31859;55.030;-1.550;2022-07-04T03:05:29;100619.51;;;8.48;100.00
46127;BME280;31859;55.030;-1.550;2022-07-04T03:07:56;100627.06;;;8.62;100.00
46127;BME280;31859;55.030;-1.550;2022-07-04T03:10:23;100621.65;;;9.05;100.00
46127;BME280;31859;55.030;-1.550;2022-07-04T03:12:50;100621.12;;;8.91;100.00
46127;BME280;31859;55.030;-1.550;2022-07-04T03:15:17;100624.85;;;8.93;100.00
46127;BME280;31859;55.030;-1.550;2022-07-04T03:17:44;100624.75;;;9.29;100.00
46127;BME280;31859;55.030;-1.550;2022-07-04T03:20:11;100630.85;;;9.54;100.00
46127;BME280;31859;55.030;-1.550;2022-07-04T03:22:38;100630.03;;;9.43;100.00
46127;BME280;31859;55.030;-1.550;2022-07-04T03:25:06;100636.37;;;8.93;100.00
46127;BME280;31859;55.030;-1.550;2022-07-04T03:27:33;100632.60;;;9.54;100.00
46127;BME280;31859;55.030;-1.550;2022-07-04T03:30:00;100624.72;;;9.17;100.00
46127;BME280;31859;55.030;-1.550;2022-07-04T03:32:27;100617.48;;;8.17;100.00
46127;BME280;31859;55.030;-1.550;2022-07-04T03:34:54;100620.90;;;8.67;100.00
46127;BME280;31859;55.030;-1.550;2022-07-04T03:37:21;100620.32;;;8.92;100.00
46127;BME280;31859;55.030;-1.550;2022-07-04T03:39:48;100609.94;;;8.95;100.00
46127;BME280;31859;55.030;-1.550;2022-07-04T03:42:15;100618.12;;;8.73;100.00
46127;BME280;31859;55.030;-1.550;2022-07-04T03:44:42;100615.01;;;8.59;100.00
46127;BME280;31859;55.030;-1.550;2022-07-04T03:47:09;100619.85;;;8.90;100.00
46127;BME280;31859;55.030;-1.550;2022-07-04T03:49:36;100611.36;;;8.79;100.00
46127;BME280;31859;55.030;-1.550;2022-07-04T03:52:03;100610.60;;;9.02;100.00
46127;BME280;31859;55.030;-1.550;2022-07-04T03:54:31;100608.03;;;9.03;100.00
46127;BME280;31859;55.030;-1.550;2022-07-04T03:56:58;100611.73;;;9.24;100.00
46127;BME280;31859;55.030;-1.550;2022-07-04T03:59:24;100616.11;;;9.09;100.00
46127;BME280;31859;55.030;-1.550;2022-07-04T04:01:51;100621.52;;;9.71;100.00
46127;BME280;31859;55.030;-1.550;2022-07-04T04:04:18;100619.96;;;8.97;100.00
46127;BME280;31859;55.030;-1.550;2022-07-04T04:06:45;100618.61;;;8.87;100.00
46127;BME280;31859;55.030;-1.550;2022-07-04T04:09:12;100619.54;;;9.41;100.00
46127;BME280;31859;55.030;-1.550;2022-07-04T04:11:39;100622.92;;;9.22;100.00
46127;BME280;31859;55.030;-1.550;2022-07-04T04:14:06;100630.21;;;9.41;100.00
46127;BME280;31859;55.030;-1.550;2022-07-04T04:16:33;100638.76;;;9.19;100.00
46127;BME280;31859;55.030;-1.550;2022-07-04T04:19:00;100642.40;;;9.56;100.00
46127;BME280;31859;55.030;-1.550;2022-07-04T04:21:27;100641.13;;;9.28;100.00
46127;BME280;31859;55.030;-1.550;2022-07-04T04:23:54;100646.36;;;9.06;100.00
46127;BME280;31859;55.030;-1.550;2022-07-04T04:26:21;100647.03;;;9.65;100.00
46127;BME280;31859;55.030;-1.550;2022-07-04T04:28:48;100647.36;;;9.03;100.00
46127;BME280;31859;55.030;-1.550;2022-07-04T04:31:15;100642.16;;;9.91;100.00
46127;BME280;31859;55.030;-1.550;2022-07-04T04:33:42;100639.66;;;9.49;100.00
46127;BME280;31859;55.030;-1.550;2022-07-04T04:36:09;100642.49;;;9.67;100.00
46127;BME280;31859;55.030;-1.550;2022-07-04T04:38:36;100639.75;;;10.11;100.00
46127;BME280;31859;55.030;-1.550;2022-07-04T04:41:03;100634.74;;;9.58;100.00
46127;BME280;31859;55.030;-1.550;2022-07-04T04:43:30;100629.42;;;9.99;100.00
46127;BME280;31859;55.030;-1.550;2022-07-04T04:45:57;100638.44;;;10.04;100.00
46127;BME280;31859;55.030;-1.550;2022-07-04T04:48:25;100630.82;;;10.22;100.00
46127;BME280;31859;55.030;-1.550;2022-07-04T04:50:53;100629.36;;;10.28;100.00
46127;BME280;31859;55.030;-1.550;2022-07-04T04:53:20;100636.32;;;10.05;100.00
46127;BME280;31859;55.030;-1.550;2022-07-04T04:55:47;100640.51;;;10.67;100.00
46127;BME280;31859;55.030;-1.550;2022-07-04T04:58:14;100646.73;;;9.93;100.00
46127;BME280;31859;55.030;-1.550;2022-07-04T05:00:41;100640.26;;;10.41;100.00
46127;BME280;31859;55.030;-1.550;2022-07-04T05:03:08;100638.84;;;10.34;100.00
46127;BME280;31859;55.030;-1.550;2022-07-04T05:05:35;100644.33;;;10.61;100.00
46127;BME280;31859;55.030;-1.550;2022-07-04T05:08:02;100637.61;;;10.88;100.00
46127;BME280;31859;55.030;-1.550;2022-07-04T05:10:30;100635.70;;;10.96;100.00
46127;BME280;31859;55.030;-1.550;2022-07-04T05:12:57;100633.47;;;10.91;100.00
46127;BME280;31859;55.030;-1.550;2022-07-04T05:15:24;100627.48;;;11.30;100.00
46127;BME280;31859;55.030;-1.550;2022-07-04T05:17:51;100622.87;;;10.57;100.00
46127;BME280;31859;55.030;-1.550;2022-07-04T05:20:18;100617.92;;;10.65;100.00
46127;BME280;31859;55.030;-1.550;2022-07-04T05:22:45;100609.51;;;10.22;100.00
46127;BME280;31859;55.030;-1.550;2022-07-04T05:25:12;100610.53;;;9.77;100.00
46127;BME280;31859;55.030;-1.550;2022-07-04T05:27:39;100616.27;;;10.34;100.00
46127;BME280;31859;55.030;-1.550;2022-07-04T05:30:08;100600.23;;;9.97;100.00
46127;BME280;31859;55.030;-1.550;2022-07-04T05:32:38;100606.44;;;9.90;100.00
46127;BME280;31859;55.030;-1.550;2022-07-04T05:35:06;100600.20;;;9.68;100.00
46127;BME280;31859;55.030;-1.550;2022-07-04T05:37:33;100597.26;;;10.36;100.00
46127;BME280;31859;55.030;-1.550;2022-07-04T05:40:00;100602.32;;;10.04;100.00
46127;BME280;31859;55.030;-1.550;2022-07-04T05:42:27;100591.64;;;10.12;100.00
46127;BME280;31859;55.030;-1.550;2022-07-04T05:44:54;100598.41;;;10.04;100.00
46127;BME280;31859;55.030;-1.550;2022-07-04T05:47:21;100597.14;;;10.28;100.00
46127;BME280;31859;55.030;-1.550;2022-07-04T05:49:48;100590.45;;;10.69;100.00
46127;BME280;31859;55.030;-1.550;2022-07-04T05:52:15;100600.48;;;11.13;100.00
46127;BME280;31859;55.030;-1.550;2022-07-04T05:54:42;100603.23;;;10.89;100.00
46127;BME280;31859;55.030;-1.550;2022-07-04T05:57:10;100604.35;;;11.03;100.00
46127;BME280;31859;55.030;-1.550;2022-07-04T05:59:37;100601.25;;;11.18;100.00
46127;BME280;31859;55.030;-1.550;2022-07-04T06:02:04;100603.76;;;11.24;100.00
46127;BME280;31859;55.030;-1.550;2022-07-04T06:04:31;100610.71;;;11.00;100.00
46127;BME280;31859;55.030;-1.550;2022-07-04T06:06:58;100610.65;;;11.42;100.00
46127;BME280;31859;55.030;-1.550;2022-07-04T06:09:25;100601.88;;;11.00;100.00
46127;BME280;31859;55.030;-1.550;2022-07-04T06:11:52;100617.43;;;11.28;100.00
46127;BME280;31859;55.030;-1.550;2022-07-04T06:14:19;100614.76;;;11.50;100.00
46127;BME280;31859;55.030;-1.550;2022-07-04T06:16:46;100612.99;;;11.72;100.00
46127;BME280;31859;55.030;-1.550;2022-07-04T06:19:13;100618.46;;;11.36;100.00
46127;BME280;31859;55.030;-1.550;2022-07-04T06:21:40;100619.58;;;11.24;100.00
46127;BME280;31859;55.030;-1.550;2022-07-04T06:24:07;100628.56;;;11.77;100.00
46127;BME280;31859;55.030;-1.550;2022-07-04T06:26:34;100624.84;;;11.55;100.00
46127;BME280;31859;55.030;-1.550;2022-07-04T06:29:02;100624.19;;;11.96;100.00
46127;BME280;31859;55.030;-1.550;2022-07-04T06:31:29;100624.40;;;11.90;100.00
46127;BME280;31859;55.030;-1.550;2022-07-04T06:33:56;100629.00;;;11.64;100.00
46127;BME280;31859;55.030;-1.550;2022-07-04T06:36:23;100631.68;;;11.57;100.00
46127;BME280;31859;55.030;-1.550;2022-07-04T06:38:50;100638.59;;;12.03;100.00
46127;BME280;31859;55.030;-1.550;2022-07-04T06:41:17;100631.87;;;11.71;100.00
46127;BME280;31859;55.030;-1.550;2022-07-04T06:43:44;100647.43;;;11.31;100.00
46127;BME280;31859;55.030;-1.550;2022-07-04T06:46:11;100640.39;;;11.38;100.00
46127;BME280;31859;55.030;-1.550;2022-07-04T06:48:37;100646.44;;;11.63;100.00
46127;BME280;31859;55.030;-1.550;2022-07-04T06:51:04;100642.52;;;11.13;100.00
46127;BME280;31859;55.030;-1.550;2022-07-04T06:53:32;100641.08;;;10.33;100.00
46127;BME280;31859;55.030;-1.550;2022-07-04T06:55:59;100643.17;;;11.10;100.00
46127;BME280;31859;55.030;-1.550;2022-07-04T06:58:26;100646.12;;;11.87;100.00
46127;BME280;31859;55.030;-1.550;2022-07-04T07:00:53;100642.09;;;11.83;100.00
46127;BME280;31859;55.030;-1.550;2022-07-04T07:03:20;100648.64;;;11.33;100.00
46127;BME280;31859;55.030;-1.550;2022-07-04T07:05:47;100647.68;;;11.79;100.00
46127;BME280;31859;55.030;-1.550;2022-07-04T07:08:14;100656.59;;;12.38;100.00
46127;BME280;31859;55.030;-1.550;2022-07-04T07:10:41;100658.86;;;12.62;100.00
46127;BME280;31859;55.030;-1.550;2022-07-04T07:13:09;100657.78;;;12.38;100.00
46127;BME280;31859;55.030;-1.550;2022-07-04T07:15:36;100665.50;;;11.86;100.00
46127;BME280;31859;55.030;-1.550;2022-07-04T07:18:03;100667.34;;;12.22;100.00
46127;BME280;31859;55.030;-1.550;2022-07-04T07:20:30;100668.87;;;11.35;100.00
46127;BME280;31859;55.030;-1.550;2022-07-04T07:22:57;100668.60;;;11.79;100.00
46127;BME280;31859;55.030;-1.550;2022-07-04T07:25:25;100670.98;;;11.51;100.00
46127;BME280;31859;55.030;-1.550;2022-07-04T07:27:53;100663.97;;;12.55;100.00
46127;BME280;31859;55.030;-1.550;2022-07-04T07:30:20;100667.31;;;12.01;100.00
46127;BME280;31859;55.030;-1.550;2022-07-04T07:32:47;100672.31;;;11.63;100.00
46127;BME280;31859;55.030;-1.550;2022-07-04T07:35:14;100658.59;;;11.80;100.00
46127;BME280;31859;55.030;-1.550;2022-07-04T07:37:41;100658.21;;;12.76;100.00
46127;BME280;31859;55.030;-1.550;2022-07-04T07:40:10;100657.28;;;13.11;100.00
46127;BME280;31859;55.030;-1.550;2022-07-04T07:42:37;100653.35;;;12.79;100.00
46127;BME280;31859;55.030;-1.550;2022-07-04T07:45:05;100652.80;;;12.04;100.00
46127;BME280;31859;55.030;-1.550;2022-07-04T07:47:32;100649.61;;;13.23;100.00
46127;BME280;31859;55.030;-1.550;2022-07-04T07:49:59;100651.97;;;12.56;100.00
46127;BME280;31859;55.030;-1.550;2022-07-04T07:52:26;100644.39;;;11.93;100.00
46127;BME280;31859;55.030;-1.550;2022-07-04T07:54:53;100646.21;;;12.07;100.00
46127;BME280;31859;55.030;-1.550;2022-07-04T07:57:21;100645.08;;;12.14;100.00
46127;BME280;31859;55.030;-1.550;2022-07-04T07:59:48;100646.28;;;11.83;100.00
46127;BME280;31859;55.030;-1.550;2022-07-04T08:02:15;100640.58;;;11.78;100.00
46127;BME280;31859;55.030;-1.550;2022-07-04T08:04:42;100642.12;;;11.65;100.00
46127;BME280;31859;55.030;-1.550;2022-07-04T08:07:10;100640.41;;;12.09;100.00
46127;BME280;31859;55.030;-1.550;2022-07-04T08:09:38;100639.88;;;12.08;100.00
46127;BME280;31859;55.030;-1.550;2022-07-04T08:12:06;100635.26;;;12.30;100.00
46127;BME280;31859;55.030;-1.550;2022-07-04T08:14:34;100642.04;;;12.22;100.00
46127;BME280;31859;55.030;-1.550;2022-07-04T08:17:02;100662.76;;;12.94;100.00
46127;BME280;31859;55.030;-1.550;2022-07-04T08:19:29;100670.83;;;13.05;100.00
46127;BME280;31859;55.030;-1.550;2022-07-04T08:21:56;100680.21;;;13.08;100.00
46127;BME280;31859;55.030;-1.550;2022-07-04T08:24:24;100693.10;;;13.02;100.00
46127;BME280;31859;55.030;-1.550;2022-07-04T08:26:51;100694.74;;;13.42;100.00
46127;BME280;31859;55.030;-1.550;2022-07-04T08:29:18;100700.42;;;13.19;100.00
46127;BME280;31859;55.030;-1.550;2022-07-04T08:31:46;100699.47;;;11.86;100.00
46127;BME280;31859;55.030;-1.550;2022-07-04T08:34:13;100685.18;;;12.43;100.00
46127;BME280;31859;55.030;-1.550;2022-07-04T08:36:41;100694.33;;;12.18;100.00
46127;BME280;31859;55.030;-1.550;2022-07-04T08:39:08;100719.90;;;11.66;100.00
46127;BME280;31859;55.030;-1.550;2022-07-04T08:41:38;100699.98;;;12.64;100.00
46127;BME280;31859;55.030;-1.550;2022-07-04T08:44:07;100696.48;;;12.33;100.00
46127;BME280;31859;55.030;-1.550;2022-07-04T08:46:37;100703.83;;;12.90;100.00
46127;BME280;31859;55.030;-1.550;2022-07-04T08:49:10;100706.00;;;12.66;100.00
46127;BME280;31859;55.030;-1.550;2022-07-04T08:51:44;100698.63;;;12.02;100.00
46127;BME280;31859;55.030;-1.550;2022-07-04T08:54:13;100689.49;;;12.50;100.00
46127;BME280;31859;55.030;-1.550;2022-07-04T08:56:40;100692.66;;;11.92;100.00
46127;BME280;31859;55.030;-1.550;2022-07-04T08:59:09;100689.64;;;12.28;100.00
46127;BME280;31859;55.030;-1.550;2022-07-04T09:01:39;100697.56;;;11.66;100.00
46127;BME280;31859;55.030;-1.550;2022-07-04T09:04:08;100688.37;;;12.07;100.00
46127;BME280;31859;55.030;-1.550;2022-07-04T09:06:35;100681.60;;;12.05;100.00
46127;BME280;31859;55.030;-1.550;2022-07-04T09:09:02;100676.19;;;11.56;100.00
46127;BME280;31859;55.030;-1.550;2022-07-04T09:11:29;100680.61;;;12.36;100.00
46127;BME280;31859;55.030;-1.550;2022-07-04T09:13:57;100675.18;;;11.92;100.00
46127;BME280;31859;55.030;-1.550;2022-07-04T09:16:24;100681.83;;;12.87;100.00
46127;BME280;31859;55.030;-1.550;2022-07-04T09:18:53;100677.42;;;12.45;100.00
46127;BME280;31859;55.030;-1.550;2022-07-04T09:21:23;100675.25;;;11.92;100.00
46127;BME280;31859;55.030;-1.550;2022-07-04T09:23:50;100677.36;;;12.64;100.00
46127;BME280;31859;55.030;-1.550;2022-07-04T09:26:18;100682.08;;;13.63;100.00
46127;BME280;31859;55.030;-1.550;2022-07-04T09:28:51;100685.76;;;13.79;100.00
46127;BME280;31859;55.030;-1.550;2022-07-04T09:31:20;100685.25;;;12.37;100.00
46127;BME280;31859;55.030;-1.550;2022-07-04T09:33:51;100698.63;;;12.97;100.00
46127;BME280;31859;55.030;-1.550;2022-07-04T09:36:21;100690.50;;;13.63;100.00
46127;BME280;31859;55.030;-1.550;2022-07-04T09:39:11;100683.74;;;13.20;100.00
46127;BME280;31859;55.030;-1.550;2022-07-04T09:41:50;100696.41;;;13.81;100.00
46127;BME280;31859;55.030;-1.550;2022-07-04T09:44:18;100704.91;;;13.25;100.00
46127;BME280;31859;55.030;-1.550;2022-07-04T09:46:45;100700.94;;;13.62;100.00
46127;BME280;31859;55.030;-1.550;2022-07-04T09:49:12;100704.15;;;13.35;100.00
46127;BME280;31859;55.030;-1.550;2022-07-04T09:51:43;100711.19;;;13.19;100.00
46127;BME280;31859;55.030;-1.550;2022-07-04T09:54:15;100714.30;;;13.07;100.00
46127;BME280;31859;55.030;-1.550;2022-07-04T09:56:45;100710.89;;;12.38;100.00
46127;BME280;31859;55.030;-1.550;2022-07-04T09:59:13;100700.11;;;13.06;100.00
46127;BME280;31859;55.030;-1.550;2022-07-04T10:01:42;100705.42;;;13.10;100.00
46127;BME280;31859;55.030;-1.550;2022-07-04T10:04:09;100691.60;;;13.20;100.00
46127;BME280;31859;55.030;-1.550;2022-07-04T10:06:39;100687.36;;;13.76;100.00
46127;BME280;31859;55.030;-1.550;2022-07-04T10:09:09;100681.26;;;13.91;100.00
46127;BME280;31859;55.030;-1.550;2022-07-04T10:11:38;100686.81;;;12.96;100.00
46127;BME280;31859;55.030;-1.550;2022-07-04T10:14:07;100684.78;;;13.48;100.00
46127;BME280;31859;55.030;-1.550;2022-07-04T10:16:36;100692.72;;;13.85;100.00
46127;BME280;31859;55.030;-1.550;2022-07-04T10:19:04;100699.25;;;12.60;100.00
46127;BME280;31859;55.030;-1.550;2022-07-04T10:21:32;100688.28;;;14.00;100.00
46127;BME280;31859;55.030;-1.550;2022-07-04T10:24:00;100691.33;;;14.63;100.00
46127;BME280;31859;55.030;-1.550;2022-07-04T10:26:28;100692.91;;;13.31;100.00
46127;BME280;31859;55.030;-1.550;2022-07-04T10:28:56;100688.79;;;13.91;100.00
46127;BME280;31859;55.030;-1.550;2022-07-04T10:31:24;100689.23;;;14.44;100.00
46127;BME280;31859;55.030;-1.550;2022-07-04T10:33:53;100685.97;;;14.59;100.00
46127;BME280;31859;55.030;-1.550;2022-07-04T10:36:23;100693.01;;;15.01;100.00
46127;BME280;31859;55.030;-1.550;2022-07-04T10:38:53;100688.25;;;15.05;100.00
46127;BME280;31859;55.030;-1.550;2022-07-04T10:41:21;100682.87;;;14.95;100.00
46127;BME280;31859;55.030;-1.550;2022-07-04T10:43:52;100689.93;;;15.13;100.00
46127;BME280;31859;55.030;-1.550;2022-07-04T10:46:25;100690.64;;;15.11;100.00
46127;BME280;31859;55.030;-1.550;2022-07-04T10:48:54;100699.20;;;16.05;100.00
46127;BME280;31859;55.030;-1.550;2022-07-04T10:51:56;100700.61;;;15.60;100.00
46127;BME280;31859;55.030;-1.550;2022-07-04T10:54:29;100698.77;;;15.99;100.00
46127;BME280;31859;55.030;-1.550;2022-07-04T10:57:09;100701.79;;;15.10;100.00
46127;BME280;31859;55.030;-1.550;2022-07-04T10:59:36;100692.33;;;16.40;100.00
46127;BME280;31859;55.030;-1.550;2022-07-04T11:02:37;100694.39;;;16.55;100.00
46127;BME280;31859;55.030;-1.550;2022-07-04T11:05:05;100688.61;;;16.23;100.00
46127;BME280;31859;55.030;-1.550;2022-07-04T11:08:05;100693.37;;;16.31;100.00
46127;BME280;31859;55.030;-1.550;2022-07-04T11:10:37;100700.11;;;15.66;100.00
46127;BME280;31859;55.030;-1.550;2022-07-04T11:13:15;100682.29;;;16.68;100.00
46127;BME280;31859;55.030;-1.550;2022-07-04T11:16:15;100687.47;;;17.48;100.00
46127;BME280;31859;55.030;-1.550;2022-07-04T11:18:44;100692.29;;;16.10;100.00
46127;BME280;31859;55.030;-1.550;2022-07-04T11:21:21;100700.79;;;17.60;100.00
46127;BME280;31859;55.030;-1.550;2022-07-04T11:23:50;100705.04;;;15.58;100.00
46127;BME280;31859;55.030;-1.550;2022-07-04T11:26:19;100702.24;;;17.17;100.00
46127;BME280;31859;55.030;-1.550;2022-07-04T11:28:47;100702.03;;;17.71;100.00
46127;BME280;31859;55.030;-1.550;2022-07-04T11:31:15;100700.14;;;17.86;100.00
46127;BME280;31859;55.030;-1.550;2022-07-04T11:33:43;100702.88;;;18.72;100.00
46127;BME280;31859;55.030;-1.550;2022-07-04T11:36:12;100704.88;;;16.34;100.00
46127;BME280;31859;55.030;-1.550;2022-07-04T11:38:51;100731.88;;;16.40;100.00
46127;BME280;31859;55.030;-1.550;2022-07-04T11:41:19;100744.40;;;17.39;100.00
46127;BME280;31859;55.030;-1.550;2022-07-04T11:43:47;100739.96;;;17.84;100.00
46127;BME280;31859;55.030;-1.550;2022-07-04T11:46:13;100747.04;;;16.38;100.00
46127;BME280;31859;55.030;-1.550;2022-07-04T11:48:41;100751.63;;;15.90;100.00
46127;BME280;31859;55.030;-1.550;2022-07-04T11:51:16;100745.45;;;13.95;100.00
46127;BME280;31859;55.030;-1.550;2022-07-04T11:53:43;100759.91;;;14.33;100.00
46127;BME280;31859;55.030;-1.550;2022-07-04T11:56:10;100759.06;;;14.96;100.00
46127;BME280;31859;55.030;-1.550;2022-07-04T11:58:41;100760.32;;;14.73;100.00
46127;BME280;31859;55.030;-1.550;2022-07-04T12:01:09;100765.60;;;16.59;100.00
46127;BME280;31859;55.030;-1.550;2022-07-04T12:03:37;100760.07;;;16.82;100.00
46127;BME280;31859;55.030;-1.550;2022-07-04T12:06:05;100751.20;;;18.05;100.00
46127;BME280;31859;55.030;-1.550;2022-07-04T12:08:32;100740.53;;;18.02;100.00
46127;BME280;31859;55.030;-1.550;2022-07-04T12:11:00;100737.46;;;18.24;100.00
46127;BME280;31859;55.030;-1.550;2022-07-04T12:13:28;100735.04;;;19.04;100.00
46127;BME280;31859;55.030;-1.550;2022-07-04T12:15:54;100728.00;;;20.10;100.00
46127;BME280;31859;55.030;-1.550;2022-07-04T12:18:25;100733.07;;;19.22;100.00
46127;BME280;31859;55.030;-1.550;2022-07-04T12:20:53;100728.62;;;18.87;100.00
46127;BME280;31859;55.030;-1.550;2022-07-04T12:23:22;100745.46;;;19.36;100.00
46127;BME280;31859;55.030;-1.550;2022-07-04T12:25:50;100745.15;;;18.21;100.00
46127;BME280;31859;55.030;-1.550;2022-07-04T12:28:19;100745.42;;;18.02;100.00
46127;BME280;31859;55.030;-1.550;2022-07-04T12:30:52;100750.71;;;19.05;100.00
46127;BME280;31859;55.030;-1.550;2022-07-04T12:33:21;100758.81;;;15.84;100.00
46127;BME280;31859;55.030;-1.550;2022-07-04T12:35:49;100755.73;;;16.00;100.00
46127;BME280;31859;55.030;-1.550;2022-07-04T12:38:18;100753.51;;;16.77;100.00